Time;durP1;ratioP1;P1;durP2;ratioP2;P2;SDS_P1;SDS_P2;PMS_P1;PMS_P2;Temp;Humidity;BMP_temperature;BMP_pressure;BME280_temperature;BME280_humidity;BME280_pressure;Samples;Min_cycle;Max_cycle;Signal;HPM_P1;HPM_P2
2022/01/05 00:00:21;;;;;;;4.00;2.42;;;;;;;;;;5130776;27;20478;-74
2022/01/05 00:02:48;;;;;;;3.53;2.17;;;;;;;;;;5132210;27;20035;-74
2022/01/05 00:05:15;;;;;;;2.33;1.10;;;;;;;;;;5132850;27;20437;-74
2022/01/05 00:07:41;;;;;;;1.33;0.75;;;;;;;;;;5130237;27;20380;-74
2022/01/05 00:10:07;;;;;;;1.00;0.60;;;;;;;;;;5130172;27;20070;-74
2022/01/05 00:12:34;;;;;;;2.15;1.33;;;;;;;;;;5111978;27;20035;-74
2022/01/05 00:15:00;;;;;;;2.40;1.30;;;;;;;;;;5130871;27;20034;-74
2022/01/05 00:17:27;;;;;;;4.85;1.80;;;;;;;;;;5115588;27;20499;-74
2022/01/05 00:19:53;;;;;;;3.63;1.70;;;;;;;;;;5132247;27;20025;-74
2022/01/05 00:22:20;;;;;;;4.65;2.20;;;;;;;;;;5129505;27;20031;-73
2022/01/05 00:24:46;;;;;;;2.42;1.30;;;;;;;;;;5112694;27;20027;-74
2022/01/05 00:27:13;;;;;;;2.83;1.48;;;;;;;;;;5130372;27;20028;-74
2022/01/05 00:29:39;;;;;;;3.45;1.60;;;;;;;;;;5132630;27;20416;-74
2022/01/05 00:32:06;;;;;;;24.50;7.45;;;;;;;;;;5112493;27;20035;-74
2022/01/05 00:34:32;;;;;;;27.45;8.65;;;;;;;;;;5129605;27;20022;-74
2022/01/05 00:36:58;;;;;;;164.85;42.08;;;;;;;;;;5129674;27;20031;-74
2022/01/05 00:39:25;;;;;;;222.13;55.88;;;;;;;;;;5113954;27;20027;-74
2022/01/05 00:41:51;;;;;;;175.45;46.38;;;;;;;;;;5130604;27;20011;-74
2022/01/05 00:44:19;;;;;;;34.08;11.27;;;;;;;;;;5132805;27;20096;-74
2022/01/05 00:46:45;;;;;;;9.20;3.67;;;;;;;;;;5129267;27;20046;-74
2022/01/05 00:49:12;;;;;;;5.78;3.28;;;;;;;;;;5129126;27;20027;-74
2022/01/05 00:51:39;;;;;;;26.77;8.85;;;;;;;;;;5129101;27;20031;-74
2022/01/05 00:54:05;;;;;;;31.15;10.40;;;;;;;;;;5129773;27;20031;-74
2022/01/05 00:56:32;;;;;;;16.15;5.50;;;;;;;;;;5132101;27;20079;-74
2022/01/05 00:58:58;;;;;;;11.40;5.18;;;;;;;;;;5113434;27;20043;-74
2022/01/05 01:01:25;;;;;;;10.15;5.05;;;;;;;;;;5129113;27;20504;-75
2022/01/05 01:03:51;;;;;;;7.78;3.70;;;;;;;;;;5130502;27;20076;-74
2022/01/05 01:06:17;;;;;;;5.47;3.05;;;;;;;;;;5129614;27;20540;-73
2022/01/05 01:08:44;;;;;;;7.07;3.00;;;;;;;;;;5131043;27;20033;-74
2022/01/05 01:11:10;;;;;;;4.45;2.35;;;;;;;;;;5130795;27;20413;-74
2022/01/05 01:13:37;;;;;;;4.55;2.10;;;;;;;;;;5129176;27;20021;-74
2022/01/05 01:16:03;;;;;;;8.23;2.78;;;;;;;;;;5129120;27;20037;-74
2022/01/05 01:18:29;;;;;;;8.35;2.80;;;;;;;;;;5129436;27;20030;-74
2022/01/05 01:20:56;;;;;;;1.35;0.60;;;;;;;;;;5113306;27;20041;-74
2022/01/05 01:23:23;;;;;;;2.25;0.65;;;;;;;;;;5132650;27;20049;-74
2022/01/05 01:25:50;;;;;;;0.70;0.60;;;;;;;;;;5113547;27;20027;-74
2022/01/05 01:28:17;;;;;;;5.50;2.30;;;;;;;;;;5128965;27;20084;-73
2022/01/05 01:30:44;;;;;;;53.67;14.13;;;;;;;;;;5128686;27;20026;-74
2022/01/05 01:33:10;;;;;;;12.00;4.78;;;;;;;;;;5129218;27;20034;-74
2022/01/05 01:35:36;;;;;;;24.48;7.25;;;;;;;;;;5131518;27;20020;-73
2022/01/05 01:38:03;;;;;;;58.20;15.25;;;;;;;;;;5129696;28;20037;-74
2022/01/05 01:40:30;;;;;;;21.73;6.30;;;;;;;;;;5128304;28;20024;-74
2022/01/05 01:42:56;;;;;;;46.53;11.27;;;;;;;;;;5130109;27;20028;-74
2022/01/05 01:45:22;;;;;;;67.78;20.58;;;;;;;;;;5128915;28;20111;-74
2022/01/05 01:47:49;;;;;;;116.32;35.20;;;;;;;;;;5110703;28;20038;-74
2022/01/05 01:50:16;;;;;;;13.90;6.15;;;;;;;;;;5115609;28;20405;-74
2022/01/05 01:52:42;;;;;;;15.93;6.25;;;;;;;;;;5112559;28;20046;-74
2022/01/05 01:55:09;;;;;;;16.25;5.88;;;;;;;;;;5113069;28;20034;-74
2022/01/05 01:57:36;;;;;;;27.73;9.57;;;;;;;;;;5113012;28;20019;-74
2022/01/05 02:00:04;;;;;;;18.92;6.43;;;;;;;;;;5109286;28;20390;-74
2022/01/05 02:02:30;;;;;;;19.33;5.70;;;;;;;;;;5115141;28;20057;-74
2022/01/05 02:04:57;;;;;;;27.42;9.43;;;;;;;;;;5113734;28;20019;-74
2022/01/05 02:07:24;;;;;;;19.83;8.10;;;;;;;;;;5112537;28;20030;-74
2022/01/05 02:09:50;;;;;;;21.45;8.95;;;;;;;;;;5113296;28;20028;-74
2022/01/05 02:12:16;;;;;;;24.10;9.93;;;;;;;;;;5111325;28;20038;-74
2022/01/05 02:14:43;;;;;;;40.28;17.40;;;;;;;;;;5112101;28;20024;-74
2022/01/05 02:17:18;;;;;;;13.02;5.90;;;;;;;;;;5114403;28;20040;-74
2022/01/05 02:19:44;;;;;;;7.35;2.85;;;;;;;;;;5112578;28;20493;-74
2022/01/05 02:22:11;;;;;;;6.05;3.08;;;;;;;;;;5095898;28;20488;-74
2022/01/05 02:24:37;;;;;;;5.57;2.60;;;;;;;;;;5094526;28;20015;-74
2022/01/05 02:27:03;;;;;;;9.55;4.65;;;;;;;;;;5109504;28;20040;-74
2022/01/05 02:29:30;;;;;;;5.15;2.70;;;;;;;;;;5114265;28;20019;-74
2022/01/05 02:32:00;;;;;;;5.10;2.10;;;;;;;;;;5113336;28;20039;-74
2022/01/05 02:34:26;;;;;;;3.20;1.63;;;;;;;;;;5112317;28;20020;-74
2022/01/05 02:36:52;;;;;;;1.08;0.65;;;;;;;;;;5112572;28;20049;-74
2022/01/05 02:39:19;;;;;;;2.15;1.10;;;;;;;;;;5111198;28;20024;-74
2022/01/05 02:41:45;;;;;;;2.75;0.90;;;;;;;;;;5110639;28;20038;-74
2022/01/05 02:44:11;;;;;;;2.08;1.20;;;;;;;;;;5114709;28;20028;-74
2022/01/05 02:46:38;;;;;;;3.47;1.00;;;;;;;;;;5113648;27;20043;-74
2022/01/05 02:49:04;;;;;;;1.63;0.80;;;;;;;;;;5116044;27;20064;-73
2022/01/05 02:51:31;;;;;;;2.20;0.73;;;;;;;;;;5116088;27;20088;-74
2022/01/05 02:53:57;;;;;;;7.63;1.23;;;;;;;;;;5111502;27;20023;-74
2022/01/05 02:56:24;;;;;;;3.78;0.70;;;;;;;;;;5119570;27;20485;-74
2022/01/05 02:58:50;;;;;;;7.85;1.20;;;;;;;;;;5116058;27;20016;-74
2022/01/05 03:01:16;;;;;;;3.97;0.90;;;;;;;;;;5117584;27;20039;-74
2022/01/05 03:03:43;;;;;;;3.15;0.98;;;;;;;;;;5115948;27;20019;-74
2022/01/05 03:06:09;;;;;;;2.90;1.00;;;;;;;;;;5113249;27;20020;-73
2022/01/05 03:08:35;;;;;;;3.97;1.15;;;;;;;;;;5116460;27;20028;-74
2022/01/05 03:11:02;;;;;;;3.45;1.00;;;;;;;;;;5117289;27;20024;-74
2022/01/05 03:13:28;;;;;;;4.43;0.73;;;;;;;;;;5115640;27;20027;-74
2022/01/05 03:15:56;;;;;;;5.55;1.13;;;;;;;;;;5115861;27;20068;-74
2022/01/05 03:18:22;;;;;;;6.30;1.05;;;;;;;;;;5114614;27;20027;-74
2022/01/05 03:20:49;;;;;;;6.00;0.80;;;;;;;;;;5113338;27;20020;-74
2022/01/05 03:23:15;;;;;;;2.75;0.85;;;;;;;;;;5100022;28;20034;-74
2022/01/05 03:25:42;;;;;;;7.55;1.00;;;;;;;;;;5115689;27;20023;-74
2022/01/05 03:28:09;;;;;;;5.22;0.95;;;;;;;;;;5115698;27;20023;-74
2022/01/05 03:30:35;;;;;;;4.40;1.10;;;;;;;;;;5115486;27;20414;-74
2022/01/05 03:33:12;;;;;;;4.00;0.88;;;;;;;;;;5111196;27;20040;-73
2022/01/05 03:35:45;;;;;;;7.07;1.10;;;;;;;;;;5115638;27;20023;-73
2022/01/05 03:38:12;;;;;;;6.07;0.90;;;;;;;;;;5117526;27;20565;-74
2022/01/05 03:40:39;;;;;;;4.45;1.15;;;;;;;;;;5116764;27;20026;-74
2022/01/05 03:43:06;;;;;;;3.10;1.15;;;;;;;;;;5115130;27;20037;-74
2022/01/05 03:45:34;;;;;;;4.68;1.02;;;;;;;;;;5115070;27;20019;-74
2022/01/05 03:48:01;;;;;;;7.75;1.20;;;;;;;;;;5110735;27;20034;-74
2022/01/05 03:50:27;;;;;;;1.23;0.73;;;;;;;;;;5117711;27;20020;-74
2022/01/05 03:52:54;;;;;;;8.68;1.20;;;;;;;;;;5099779;28;20044;-74
2022/01/05 03:55:20;;;;;;;6.22;0.95;;;;;;;;;;5115028;27;20054;-74
2022/01/05 03:57:46;;;;;;;6.45;1.10;;;;;;;;;;5115068;27;20019;-74
2022/01/05 04:00:13;;;;;;;3.35;1.10;;;;;;;;;;5112974;27;20024;-73
2022/01/05 04:02:39;;;;;;;6.18;1.13;;;;;;;;;;5114830;27;20023;-74
2022/01/05 04:05:06;;;;;;;8.55;1.00;;;;;;;;;;5116023;27;20028;-73
2022/01/05 04:07:32;;;;;;;5.63;1.08;;;;;;;;;;5114781;27;20031;-74
2022/01/05 04:09:59;;;;;;;4.93;1.10;;;;;;;;;;5114782;27;20029;-74
2022/01/05 04:12:25;;;;;;;2.63;1.00;;;;;;;;;;5114012;27;20423;-74
2022/01/05 04:14:51;;;;;;;4.40;0.75;;;;;;;;;;5111584;28;20501;-74
2022/01/05 04:17:18;;;;;;;2.05;0.85;;;;;;;;;;5117118;27;20024;-74
2022/01/05 04:19:44;;;;;;;6.03;1.45;;;;;;;;;;5116159;27;20019;-74
2022/01/05 04:22:10;;;;;;;3.53;0.93;;;;;;;;;;5114387;27;20045;-74
2022/01/05 04:24:37;;;;;;;1.48;0.80;;;;;;;;;;5114392;27;20022;-74
2022/01/05 04:27:04;;;;;;;5.05;1.08;;;;;;;;;;5110941;27;20020;-74
2022/01/05 04:29:30;;;;;;;2.67;1.00;;;;;;;;;;5116159;27;20378;-74
2022/01/05 04:31:56;;;;;;;5.72;1.30;;;;;;;;;;5114365;27;20043;-74
2022/01/05 04:34:23;;;;;;;4.80;1.00;;;;;;;;;;5114532;27;20031;-74
2022/01/05 04:36:49;;;;;;;10.55;1.23;;;;;;;;;;5114102;27;20023;-74
2022/01/05 04:39:15;;;;;;;7.53;1.27;;;;;;;;;;5112291;27;20034;-73
2022/01/05 04:41:42;;;;;;;6.30;1.10;;;;;;;;;;5113897;27;20031;-74
2022/01/05 04:44:08;;;;;;;6.10;0.95;;;;;;;;;;5115344;27;20027;-74
2022/01/05 04:46:35;;;;;;;8.40;1.33;;;;;;;;;;5113606;27;20039;-74
2022/01/05 04:49:01;;;;;;;4.30;1.20;;;;;;;;;;5114159;27;20022;-74
2022/01/05 04:51:27;;;;;;;5.88;1.48;;;;;;;;;;5113640;27;20035;-74
2022/01/05 04:53:54;;;;;;;7.22;1.27;;;;;;;;;;5109935;28;20080;-74
2022/01/05 04:56:20;;;;;;;3.58;1.10;;;;;;;;;;5117289;27;20024;-73
2022/01/05 04:58:46;;;;;;;6.28;1.00;;;;;;;;;;5115206;27;20023;-74
2022/01/05 05:01:13;;;;;;;3.58;1.27;;;;;;;;;;5113397;27;20020;-74
2022/01/05 05:03:39;;;;;;;8.23;1.20;;;;;;;;;;5113934;27;20031;-74
2022/01/05 05:06:05;;;;;;;2.05;0.98;;;;;;;;;;5110286;27;20478;-74
2022/01/05 05:08:32;;;;;;;6.05;1.60;;;;;;;;;;5114953;27;20028;-74
2022/01/05 05:10:58;;;;;;;6.63;1.30;;;;;;;;;;5097526;28;20016;-74
2022/01/05 05:13:24;;;;;;;5.95;1.63;;;;;;;;;;5113488;27;20028;-74
2022/01/05 05:15:51;;;;;;;7.43;1.30;;;;;;;;;;5113205;27;20019;-74
2022/01/05 05:18:17;;;;;;;3.03;1.00;;;;;;;;;;5112068;27;20397;-74
2022/01/05 05:20:43;;;;;;;4.30;1.40;;;;;;;;;;5112543;27;20100;-74
2022/01/05 05:23:10;;;;;;;6.03;1.35;;;;;;;;;;5114907;27;20028;-74
2022/01/05 05:25:36;;;;;;;3.42;1.00;;;;;;;;;;5113493;27;20402;-74
2022/01/05 05:28:02;;;;;;;4.20;1.20;;;;;;;;;;5094833;28;20036;-75
2022/01/05 05:30:29;;;;;;;4.10;1.10;;;;;;;;;;5078026;27;20438;-73
2022/01/05 05:32:57;;;;;;;3.22;1.55;;;;;;;;;;5093002;28;20035;-73
2022/01/05 05:35:26;;;;;;;3.75;1.20;;;;;;;;;;5124127;27;20098;-74
2022/01/05 05:37:52;;;;;;;2.65;0.98;;;;;;;;;;5113615;27;20016;-74
2022/01/05 05:40:18;;;;;;;7.20;1.42;;;;;;;;;;5113098;28;20389;-73
2022/01/05 05:42:45;;;;;;;4.13;1.38;;;;;;;;;;5112719;28;20022;-73
2022/01/05 05:45:11;;;;;;;6.32;1.30;;;;;;;;;;5110391;28;20039;-74
2022/01/05 05:47:38;;;;;;;5.07;1.42;;;;;;;;;;5113521;28;20054;-74
2022/01/05 05:50:04;;;;;;;8.07;1.40;;;;;;;;;;5114240;28;20030;-73
2022/01/05 05:52:31;;;;;;;6.47;1.83;;;;;;;;;;5112936;28;20032;-73
2022/01/05 05:54:57;;;;;;;22.25;7.72;;;;;;;;;;5113479;28;20030;-74
2022/01/05 05:57:23;;;;;;;8.30;1.90;;;;;;;;;;5093961;28;20025;-74
2022/01/05 05:59:50;;;;;;;12.32;1.70;;;;;;;;;;5110155;28;20055;-74
2022/01/05 06:02:16;;;;;;;3.38;1.17;;;;;;;;;;5098328;28;20027;-74
2022/01/05 06:04:43;;;;;;;4.40;1.20;;;;;;;;;;5113045;28;20024;-74
2022/01/05 06:07:09;;;;;;;7.22;1.38;;;;;;;;;;5113041;28;20023;-74
2022/01/05 06:09:35;;;;;;;6.40;1.70;;;;;;;;;;5113102;28;20019;-73
2022/01/05 06:12:02;;;;;;;6.53;1.27;;;;;;;;;;5090283;28;20028;-74
2022/01/05 06:14:28;;;;;;;3.80;1.40;;;;;;;;;;5115397;28;20024;-74
2022/01/05 06:16:55;;;;;;;7.93;1.60;;;;;;;;;;5114866;28;20409;-74
2022/01/05 06:19:21;;;;;;;8.27;1.73;;;;;;;;;;5112790;28;20023;-74
2022/01/05 06:21:50;;;;;;;8.10;1.60;;;;;;;;;;5114455;27;20031;-74
2022/01/05 06:24:17;;;;;;;5.72;1.20;;;;;;;;;;5115022;27;20020;-74
2022/01/05 06:26:44;;;;;;;4.78;1.58;;;;;;;;;;5115639;27;20482;-74
2022/01/05 06:29:13;;;;;;;4.07;1.60;;;;;;;;;;5118584;27;20026;-74
2022/01/05 06:31:40;;;;;;;3.53;1.50;;;;;;;;;;5116945;27;20028;-74
2022/01/05 06:34:07;;;;;;;4.43;1.58;;;;;;;;;;5116682;27;20038;-74
2022/01/05 06:36:33;;;;;;;4.20;1.15;;;;;;;;;;5116561;27;20023;-73
2022/01/05 06:39:01;;;;;;;2.78;1.30;;;;;;;;;;5112276;27;20019;-73
2022/01/05 06:41:28;;;;;;;4.15;1.63;;;;;;;;;;5100476;28;20502;-74
2022/01/05 06:43:54;;;;;;;1.50;1.08;;;;;;;;;;5118295;27;20046;-73
2022/01/05 06:46:21;;;;;;;5.88;1.42;;;;;;;;;;5116275;27;20141;-74
2022/01/05 06:48:47;;;;;;;5.13;1.80;;;;;;;;;;5116221;27;20416;-74
2022/01/05 06:51:13;;;;;;;6.55;1.30;;;;;;;;;;5113847;27;20024;-73
2022/01/05 06:53:41;;;;;;;7.25;1.67;;;;;;;;;;5115667;27;20032;-73
2022/01/05 06:56:07;;;;;;;5.30;1.80;;;;;;;;;;5119395;27;20072;-73
2022/01/05 06:58:34;;;;;;;5.35;1.63;;;;;;;;;;5116123;27;20034;-73
2022/01/05 07:01:01;;;;;;;3.92;1.23;;;;;;;;;;5115895;27;20024;-74
2022/01/05 07:03:27;;;;;;;4.78;1.60;;;;;;;;;;5115014;27;20031;-74
2022/01/05 07:05:53;;;;;;;2.72;1.42;;;;;;;;;;5123379;27;20023;-75
2022/01/05 07:08:20;;;;;;;4.45;1.92;;;;;;;;;;5120548;27;20024;-73
2022/01/05 07:10:46;;;;;;;4.05;1.60;;;;;;;;;;5102605;27;20020;-73
2022/01/05 07:13:12;;;;;;;5.70;1.50;;;;;;;;;;5109371;27;20061;-73
2022/01/05 07:15:39;;;;;;;6.97;2.22;;;;;;;;;;5115767;27;20015;-73
2022/01/05 07:18:05;;;;;;;5.82;1.58;;;;;;;;;;5118647;27;20402;-73
2022/01/05 07:20:31;;;;;;;5.10;1.35;;;;;;;;;;5132384;27;20023;-74
2022/01/05 07:22:58;;;;;;;6.97;1.98;;;;;;;;;;5098632;28;20019;-73
2022/01/05 07:25:24;;;;;;;4.68;2.05;;;;;;;;;;5115037;27;20053;-74
2022/01/05 07:27:50;;;;;;;6.85;2.50;;;;;;;;;;5115392;27;20011;-73
2022/01/05 07:30:17;;;;;;;4.80;1.55;;;;;;;;;;5113479;27;20082;-73
2022/01/05 07:32:43;;;;;;;4.03;1.38;;;;;;;;;;5095915;28;20035;-74
2022/01/05 07:35:10;;;;;;;2.33;1.17;;;;;;;;;;5118922;27;20019;-73
2022/01/05 07:37:36;;;;;;;4.70;1.40;;;;;;;;;;5115274;27;20035;-73
2022/01/05 07:40:03;;;;;;;4.88;1.38;;;;;;;;;;5113946;27;20393;-73
2022/01/05 07:42:33;;;;;;;6.57;1.50;;;;;;;;;;5117136;27;20023;-74
2022/01/05 07:45:00;;;;;;;5.55;1.30;;;;;;;;;;5101674;27;20015;-73
2022/01/05 07:47:27;;;;;;;4.40;1.20;;;;;;;;;;5118071;27;20052;-74
2022/01/05 07:49:53;;;;;;;6.07;2.40;;;;;;;;;;5114713;27;20026;-74
2022/01/05 07:52:20;;;;;;;7.93;2.38;;;;;;;;;;5112259;27;20028;-74
2022/01/05 07:54:46;;;;;;;9.93;5.82;;;;;;;;;;5105586;27;20023;-73
2022/01/05 07:57:13;;;;;;;5.93;3.10;;;;;;;;;;5112084;27;20028;-74
2022/01/05 07:59:39;;;;;;;3.25;1.40;;;;;;;;;;5114877;27;20511;-74
2022/01/05 08:02:05;;;;;;;6.10;2.45;;;;;;;;;;5110224;27;20031;-74
2022/01/05 08:04:31;;;;;;;5.43;2.10;;;;;;;;;;5108454;27;20184;-74
2022/01/05 08:06:58;;;;;;;4.60;2.30;;;;;;;;;;5114814;27;20027;-73
2022/01/05 08:09:25;;;;;;;10.32;2.78;;;;;;;;;;5109995;27;20027;-73
2022/01/05 08:11:51;;;;;;;5.28;2.90;;;;;;;;;;5098174;27;20559;-73
2022/01/05 08:14:17;;;;;;;2.55;1.02;;;;;;;;;;5114303;27;20046;-74
2022/01/05 08:16:44;;;;;;;4.10;1.00;;;;;;;;;;5111047;27;20028;-74
2022/01/05 08:19:10;;;;;;;3.78;1.60;;;;;;;;;;5113764;27;20031;-74
2022/01/05 08:21:36;;;;;;;7.55;3.40;;;;;;;;;;5114945;27;20367;-74
2022/01/05 08:24:03;;;;;;;3.03;1.58;;;;;;;;;;5097151;28;20024;-74
2022/01/05 08:26:29;;;;;;;2.38;1.25;;;;;;;;;;5115939;27;20478;-73
2022/01/05 08:28:55;;;;;;;3.78;1.25;;;;;;;;;;5114201;27;20030;-73
2022/01/05 08:31:22;;;;;;;3.60;1.27;;;;;;;;;;5113063;27;20043;-74
2022/01/05 08:33:49;;;;;;;2.17;1.15;;;;;;;;;;5113417;27;20027;-73
2022/01/05 08:36:15;;;;;;;1.83;1.10;;;;;;;;;;5110032;27;20026;-74
2022/01/05 08:38:42;;;;;;;2.08;0.80;;;;;;;;;;5127250;27;20031;-74
2022/01/05 08:41:08;;;;;;;1.80;1.20;;;;;;;;;;5114083;27;20355;-73
2022/01/05 08:43:34;;;;;;;1.05;0.98;;;;;;;;;;5092169;28;20042;-74
2022/01/05 08:46:01;;;;;;;1.05;0.98;;;;;;;;;;5105648;27;20030;-73
2022/01/05 08:48:28;;;;;;;3.45;1.40;;;;;;;;;;5111076;27;20037;-74
2022/01/05 08:50:54;;;;;;;2.42;1.42;;;;;;;;;;5110445;28;20018;-73
2022/01/05 08:53:21;;;;;;;2.03;1.00;;;;;;;;;;5127181;27;20035;-73
2022/01/05 08:55:48;;;;;;;2.08;1.13;;;;;;;;;;5095622;28;20026;-74
2022/01/05 08:58:17;;;;;;;2.55;1.13;;;;;;;;;;5113130;27;20175;-75
2022/01/05 09:00:43;;;;;;;3.25;1.48;;;;;;;;;;5112602;27;20481;-73
2022/01/05 09:03:13;;;;;;;2.60;0.82;;;;;;;;;;5110158;27;20172;-74
2022/01/05 09:05:39;;;;;;;5.35;1.40;;;;;;;;;;5112668;27;20031;-74
2022/01/05 09:08:06;;;;;;;1.60;1.00;;;;;;;;;;5112493;27;20393;-74
2022/01/05 09:10:32;;;;;;;2.65;1.30;;;;;;;;;;5112353;27;20413;-74
2022/01/05 09:13:00;;;;;;;2.17;1.15;;;;;;;;;;5117752;27;20037;-74
2022/01/05 09:15:26;;;;;;;3.60;1.20;;;;;;;;;;5112910;27;20031;-74
2022/01/05 09:17:53;;;;;;;4.32;1.10;;;;;;;;;;5101025;28;20017;-74
2022/01/05 09:20:20;;;;;;;4.07;1.30;;;;;;;;;;5114544;27;20034;-73
2022/01/05 09:22:47;;;;;;;3.05;0.98;;;;;;;;;;5104324;27;20034;-74
2022/01/05 09:25:14;;;;;;;3.05;1.00;;;;;;;;;;5107024;27;20530;-74
2022/01/05 09:27:40;;;;;;;1.27;0.88;;;;;;;;;;5105124;27;20022;-74
2022/01/05 09:30:09;;;;;;;2.42;0.98;;;;;;;;;;5108650;28;20521;-74
2022/01/05 09:32:36;;;;;;;2.35;0.90;;;;;;;;;;5111673;27;20457;-74
2022/01/05 09:35:02;;;;;;;2.45;0.70;;;;;;;;;;5114927;27;20036;-74
2022/01/05 09:37:34;;;;;;;1.95;0.80;;;;;;;;;;5112607;27;20034;-73
2022/01/05 09:42:45;;;;;;;2.10;0.80;;;;;;;;;;5111858;28;20023;-74
2022/01/05 09:45:15;;;;;;;2.97;1.20;;;;;;;;;;5110497;28;20028;-74
2022/01/05 09:47:48;;;;;;;3.55;0.95;;;;;;;;;;5111965;28;20058;-74
2022/01/05 09:50:15;;;;;;;2.80;0.95;;;;;;;;;;5115201;28;20038;-73
2022/01/05 09:52:43;;;;;;;1.02;0.77;;;;;;;;;;5114173;28;20525;-74
2022/01/05 09:55:11;;;;;;;3.20;0.90;;;;;;;;;;5110252;28;20525;-74
2022/01/05 09:57:42;;;;;;;2.58;1.20;;;;;;;;;;5108650;27;20027;-73
2022/01/05 10:00:08;;;;;;;;;;;;;;;;;;5113936;27;20026;-74
2022/01/05 10:02:35;;;;;;;2.22;0.57;;;;;;;;;;5117690;27;19914;-73
2022/01/05 10:05:02;;;;;;;2.60;1.00;;;;;;;;;;5117303;27;20020;-74
2022/01/05 10:07:28;;;;;;;2.15;0.82;;;;;;;;;;5112703;27;20466;-74
2022/01/05 10:09:55;;;;;;;3.33;0.70;;;;;;;;;;5091184;28;20020;-74
2022/01/05 10:12:22;;;;;;;1.42;0.70;;;;;;;;;;5115037;27;21077;-74
2022/01/05 10:14:49;;;;;;;4.60;1.08;;;;;;;;;;5114246;27;20035;-74
2022/01/05 10:17:17;;;;;;;2.50;0.88;;;;;;;;;;5118362;27;20042;-74
2022/01/05 10:19:45;;;;;;;2.22;1.00;;;;;;;;;;5115666;27;20020;-74
2022/01/05 10:22:38;;;;;;;2.35;0.60;;;;;;;;;;5115664;27;20529;-73
2022/01/05 10:25:06;;;;;;;3.80;0.75;;;;;;;;;;5113087;27;20038;-74
2022/01/05 10:27:32;;;;;;;3.50;1.13;;;;;;;;;;5116173;27;20023;-74
2022/01/05 10:30:06;;;;;;;4.90;0.70;;;;;;;;;;5112988;28;20488;-73
2022/01/05 10:32:33;;;;;;;2.25;0.77;;;;;;;;;;5113136;27;20450;-74
2022/01/05 10:35:02;;;;;;;7.03;0.98;;;;;;;;;;5111483;27;20028;-73
2022/01/05 10:37:28;;;;;;;2.03;0.70;;;;;;;;;;5097449;28;20032;-73
2022/01/05 10:40:08;;;;;;;1.73;0.88;;;;;;;;;;5116655;27;20024;-74
2022/01/05 10:42:35;;;;;;;6.78;1.02;;;;;;;;;;5126244;27;20025;-74
2022/01/05 10:45:02;;;;;;;3.45;0.95;;;;;;;;;;5111566;28;20018;-74
2022/01/05 10:47:29;;;;;;;3.47;1.10;;;;;;;;;;5114800;27;20043;-74
2022/01/05 10:49:56;;;;;;;1.50;0.77;;;;;;;;;;5117214;27;20042;-74
2022/01/05 10:52:27;;;;;;;3.85;1.65;;;;;;;;;;5115670;27;20547;-74
2022/01/05 10:54:54;;;;;;;3.22;1.02;;;;;;;;;;5115492;27;20018;-73
2022/01/05 10:57:22;;;;;;;4.05;1.10;;;;;;;;;;5114007;27;20124;-74
2022/01/05 10:59:54;;;;;;;2.38;0.73;;;;;;;;;;5113504;27;20049;-75
2022/01/05 11:02:22;;;;;;;4.40;1.00;;;;;;;;;;5118132;27;20030;-74
2022/01/05 11:04:49;;;;;;;3.38;1.00;;;;;;;;;;5114495;27;20019;-74
2022/01/05 11:07:20;;;;;;;1.67;0.73;;;;;;;;;;5114525;27;20076;-74
2022/01/05 11:10:12;;;;;;;8.38;1.00;;;;;;;;;;5115119;27;20029;-74
2022/01/05 11:12:52;;;;;;;4.40;1.10;;;;;;;;;;5111979;27;20031;-73
2022/01/05 11:15:21;;;;;;;2.30;0.70;;;;;;;;;;5113104;27;20417;-74
2022/01/05 11:18:08;;;;;;;6.07;2.10;;;;;;;;;;5094901;28;20393;-73
2022/01/05 11:20:39;;;;;;;3.92;1.30;;;;;;;;;;5108870;27;20037;-74
2022/01/05 11:23:06;;;;;;;1.35;0.75;;;;;;;;;;5118493;27;20036;-74
2022/01/05 11:25:34;;;;;;;4.65;1.10;;;;;;;;;;5115244;27;20032;-73
2022/01/05 11:28:00;;;;;;;2.97;1.15;;;;;;;;;;5116916;27;20027;-73
2022/01/05 11:30:27;;;;;;;3.33;1.10;;;;;;;;;;5114327;27;20023;-74
2022/01/05 11:32:53;;;;;;;7.00;1.35;;;;;;;;;;5111550;28;20089;-74
2022/01/05 11:35:20;;;;;;;1.60;0.82;;;;;;;;;;5117823;27;20034;-74
2022/01/05 11:37:47;;;;;;;4.15;1.55;;;;;;;;;;5114993;27;20046;-74
2022/01/05 11:40:14;;;;;;;4.43;1.70;;;;;;;;;;5114947;27;20500;-74
2022/01/05 11:42:41;;;;;;;5.28;1.38;;;;;;;;;;5114645;27;20477;-74
2022/01/05 11:45:08;;;;;;;6.10;3.00;;;;;;;;;;5110903;27;20016;-74
2022/01/05 11:47:36;;;;;;;6.95;3.30;;;;;;;;;;5115860;27;20050;-73
2022/01/05 11:50:12;;;;;;;3.80;1.35;;;;;;;;;;5117174;27;20038;-74
2022/01/05 11:52:57;;;;;;;6.03;1.45;;;;;;;;;;5114435;27;20058;-74
2022/01/05 11:55:23;;;;;;;3.78;1.60;;;;;;;;;;5096608;28;20023;-74
2022/01/05 11:58:08;;;;;;;2.90;1.20;;;;;;;;;;5114386;27;20019;-73
2022/01/05 12:00:35;;;;;;;4.43;1.52;;;;;;;;;;5114055;27;20041;-74
2022/01/05 12:03:01;;;;;;;5.63;1.67;;;;;;;;;;5110243;27;20394;-74
2022/01/05 12:05:27;;;;;;;6.53;1.27;;;;;;;;;;5117628;27;20030;-74
2022/01/05 12:07:55;;;;;;;10.52;3.38;;;;;;;;;;5097635;28;20366;-74
2022/01/05 12:10:22;;;;;;;6.38;1.50;;;;;;;;;;5095597;28;20342;-74
2022/01/05 12:12:54;;;;;;;3.25;1.15;;;;;;;;;;5114073;27;20632;-74
2022/01/05 12:15:41;;;;;;;7.15;1.05;;;;;;;;;;5094269;27;20031;-74
2022/01/05 12:18:08;;;;;;;3.72;1.23;;;;;;;;;;5095902;27;20490;-74
2022/01/05 12:20:35;;;;;;;6.35;1.38;;;;;;;;;;5097204;28;20020;-74
2022/01/05 12:23:24;;;;;;;3.65;1.17;;;;;;;;;;5124784;27;20131;-73
2022/01/05 12:26:07;;;;;;;2.95;1.05;;;;;;;;;;5114339;27;20022;-74
2022/01/05 12:28:33;;;;;;;10.10;1.58;;;;;;;;;;5113531;27;20046;-73
2022/01/05 12:31:00;;;;;;;5.65;1.27;;;;;;;;;;5113762;27;20022;-73
2022/01/05 12:33:26;;;;;;;4.35;1.30;;;;;;;;;;5112570;27;20079;-74
2022/01/05 12:35:57;;;;;;;3.40;1.02;;;;;;;;;;5110104;27;20019;-73
2022/01/05 12:38:30;;;;;;;4.72;1.30;;;;;;;;;;5116743;27;20030;-74
2022/01/05 12:40:57;;;;;;;4.05;0.95;;;;;;;;;;5115639;27;20020;-74
2022/01/05 12:43:33;;;;;;;5.57;1.67;;;;;;;;;;5113266;27;20076;-74
2022/01/05 12:46:02;;;;;;;8.55;2.33;;;;;;;;;;5114664;27;20039;-74
2022/01/05 12:48:35;;;;;;;7.03;1.63;;;;;;;;;;5113591;27;20019;-74
2022/01/05 12:51:17;;;;;;;4.72;1.33;;;;;;;;;;5093185;28;20050;-73
2022/01/05 12:54:03;;;;;;;4.00;1.10;;;;;;;;;;5113015;27;20035;-74
2022/01/05 12:56:35;;;;;;;6.05;1.25;;;;;;;;;;5128861;27;20034;-74
2022/01/05 12:59:03;;;;;;;4.53;1.23;;;;;;;;;;5113926;27;20028;-74
2022/01/05 13:01:30;;;;;;;8.57;1.42;;;;;;;;;;5113419;27;20030;-74
2022/01/05 13:03:59;;;;;;;5.20;2.05;;;;;;;;;;5112718;27;20019;-74
2022/01/05 13:06:27;;;;;;;5.10;1.10;;;;;;;;;;5112210;27;20033;-74
2022/01/05 13:09:03;;;;;;;7.35;1.52;;;;;;;;;;5110156;27;20028;-73
2022/01/05 13:11:33;;;;;;;4.57;1.10;;;;;;;;;;5123955;27;20067;-74
2022/01/05 13:14:14;;;;;;;1.88;1.00;;;;;;;;;;5113339;27;20028;-73
2022/01/05 13:16:42;;;;;;;7.20;1.30;;;;;;;;;;5113372;27;20026;-73
2022/01/05 13:19:14;;;;;;;3.25;0.88;;;;;;;;;;5112568;27;20026;-73
2022/01/05 13:21:44;;;;;;;4.80;0.85;;;;;;;;;;5113170;27;20017;-74
2022/01/05 13:24:10;;;;;;;3.97;0.95;;;;;;;;;;5110751;27;20477;-74
2022/01/05 13:26:37;;;;;;;3.78;1.35;;;;;;;;;;5113414;27;20022;-74
2022/01/05 13:29:22;;;;;;;7.15;1.02;;;;;;;;;;5108877;28;20036;-74
2022/01/05 13:31:58;;;;;;;5.57;1.23;;;;;;;;;;5111364;27;20478;-74
2022/01/05 13:34:34;;;;;;;5.95;1.35;;;;;;;;;;5112579;27;20024;-74
2022/01/05 13:37:00;;;;;;;4.25;1.30;;;;;;;;;;5112588;27;20012;-73
2022/01/05 13:39:40;;;;;;;2.70;1.08;;;;;;;;;;5112106;27;20023;-73
2022/01/05 13:42:12;;;;;;;5.55;1.17;;;;;;;;;;5093599;28;20024;-72
2022/01/05 13:44:39;;;;;;;4.25;1.00;;;;;;;;;;5095585;28;20024;-74
2022/01/05 13:47:06;;;;;;;6.15;1.10;;;;;;;;;;5113038;28;20104;-73
2022/01/05 13:49:33;;;;;;;3.20;1.02;;;;;;;;;;5112467;28;20023;-74
2022/01/05 13:52:11;;;;;;;7.15;1.10;;;;;;;;;;5112355;28;20113;-74
2022/01/05 13:54:39;;;;;;;4.13;1.00;;;;;;;;;;5111613;28;20019;-74
2022/01/05 13:57:06;;;;;;;5.88;1.15;;;;;;;;;;5108345;28;20020;-74
2022/01/05 13:59:39;;;;;;;8.23;1.02;;;;;;;;;;5114805;28;20023;-75
2022/01/05 14:02:08;;;;;;;6.60;1.20;;;;;;;;;;5113510;28;20577;-74
2022/01/05 14:04:49;;;;;;;5.65;1.00;;;;;;;;;;5113981;28;20023;-74
2022/01/05 14:07:20;;;;;;;4.57;0.90;;;;;;;;;;5112533;28;20024;-74
2022/01/05 14:10:02;;;;;;;5.22;1.20;;;;;;;;;;5112214;28;20023;-74
2022/01/05 14:12:31;;;;;;;4.80;0.95;;;;;;;;;;5111748;28;20087;-74
2022/01/05 14:14:58;;;;;;;4.03;0.98;;;;;;;;;;5108572;28;20509;-74
2022/01/05 14:17:25;;;;;;;5.35;0.90;;;;;;;;;;5115697;28;20031;-73
2022/01/05 14:20:11;;;;;;;5.65;1.20;;;;;;;;;;5112087;28;20026;-74
2022/01/05 14:22:37;;;;;;;5.78;1.70;;;;;;;;;;5111849;28;20036;-74
2022/01/05 14:25:04;;;;;;;6.78;1.20;;;;;;;;;;5111113;28;20031;-74
2022/01/05 14:27:35;;;;;;;4.32;0.73;;;;;;;;;;5112280;28;20017;-74
2022/01/05 14:30:03;;;;;;;4.68;1.30;;;;;;;;;;5091887;28;20397;-74
2022/01/05 14:32:36;;;;;;;5.05;1.00;;;;;;;;;;5115339;28;20550;-74
2022/01/05 14:35:11;;;;;;;8.20;1.27;;;;;;;;;;5114327;28;20020;-74
2022/01/05 14:37:57;;;;;;;4.55;1.00;;;;;;;;;;5112459;28;20016;-74
2022/01/05 14:40:24;;;;;;;6.85;2.58;;;;;;;;;;5112325;28;20038;-74
2022/01/05 14:42:58;;;;;;;4.75;1.70;;;;;;;;;;5115114;27;20030;-74
2022/01/05 14:45:25;;;;;;;3.60;1.33;;;;;;;;;;5116018;27;20019;-74
2022/01/05 14:47:51;;;;;;;2.65;0.85;;;;;;;;;;5109693;28;20048;-74